Terminal Aerodrome Forecast
Issued by NWS

Home | Current Version | Previous Version | Text Only | Print | Product List | Glossary On
Versions: 1 2 3 4 5 6 7 8 9 10 11 12 13 14 15 16 17 18
000
FTUS43 KGRB 290500
TAFCWA
TAF
KCWA 290520Z 2906/3006 30005KT P6SM VCSH SCT040 BKN080
     FM290900 30003KT P6SM BKN080
     FM291600 29007KT P6SM VCSH SCT040 BKN060
     FM300400 VRB02KT P6SM SCT040 SCT080
      AMD LTD TO CLD VIS AND WIND TIL 291200=

USA.gov is the U.S. government's official web portal to all federal, state and local government web resources and services.